Time;durP1;ratioP1;P1;durP2;ratioP2;P2;SDS_P1;SDS_P2;PMS_P1;PMS_P2;Temp;Humidity;BMP_temperature;BMP_pressure;BME280_temperature;BME280_humidity;BME280_pressure;Samples;Min_cycle;Max_cycle;Signal;HPM_P1;HPM_P2
2022/11/02 00:00:35;;;;;;;;;;;;;;;10.99;76.34;98923.56;7393402;19;19918;-81
2022/11/02 00:03:02;;;;;;;;;;;;;;;11.04;76.78;98931.06;7395574;19;19964;-80
2022/11/02 00:05:29;;;;;;;;;;;;;;;11.18;76.28;98933.25;7394570;19;19914;-79
2022/11/02 00:07:56;;;;;;;;;;;;;;;10.98;76.63;98928.03;7388954;19;19918;-81
2022/11/02 00:10:23;;;;;;;;;;;;;;;10.91;76.79;98931.38;7388334;19;19923;-80
2022/11/02 00:12:50;;;;;;;;;;;;;;;11.13;76.36;98931.00;7387819;19;19923;-80
2022/11/02 00:15:17;;;;;;;;;;;;;;;11.13;75.88;98933.66;7377238;19;20280;-81
2022/11/02 00:17:46;;;;;;;;;;;;;;;11.23;74.04;98941.56;7389286;19;19930;-78
2022/11/02 00:20:13;;;;;;;;;;;;;;;11.25;73.89;98936.97;7389658;19;19943;-79
2022/11/02 00:22:40;;;;;;;;;;;;;;;10.95;74.91;98933.63;7394289;19;19918;-80
2022/11/02 00:25:07;;;;;;;;;;;;;;;10.85;75.40;98934.59;7393249;19;19942;-81
2022/11/02 00:27:33;;;;;;;;;;;;;;;10.69;75.62;98938.69;7389750;19;19919;-81
2022/11/02 00:30:00;;;;;;;;;;;;;;;10.79;74.65;98948.41;7383397;19;19922;-80
2022/11/02 00:32:27;;;;;;;;;;;;;;;10.83;74.78;98939.22;7390389;19;19914;-80
2022/11/02 00:34:54;;;;;;;;;;;;;;;10.69;74.92;98936.06;7390269;19;19919;-80
2022/11/02 00:37:20;;;;;;;;;;;;;;;10.68;75.81;98939.66;7391898;19;19949;-81
2022/11/02 00:39:47;;;;;;;;;;;;;;;10.68;75.79;98941.47;7395104;19;19926;-81
2022/11/02 00:42:15;;;;;;;;;;;;;;;10.66;76.03;98946.06;7393523;19;19989;-80
2022/11/02 00:44:41;;;;;;;;;;;;;;;10.57;76.76;98949.56;7391396;19;19922;-81
2022/11/02 00:47:08;;;;;;;;;;;;;;;10.62;76.99;98948.16;7388652;19;19938;-80
2022/11/02 00:49:35;;;;;;;;;;;;;;;10.67;76.68;98950.41;7388346;19;19942;-79
2022/11/02 00:52:04;;;;;;;;;;;;;;;10.68;76.51;98944.13;7396090;19;19911;-81
2022/11/02 00:54:30;;;;;;;;;;;;;;;10.66;76.83;98948.72;7395275;19;19937;-78
2022/11/02 00:56:57;;;;;;;;;;;;;;;10.63;76.75;98949.00;7395796;19;19942;-81
2022/11/02 00:59:24;;;;;;;;;;;;;;;10.64;76.87;98953.34;7391249;19;20275;-80
2022/11/02 01:01:54;;;;;;;;;;;;;;;10.73;76.88;98949.81;7392490;19;19982;-80
2022/11/02 01:04:21;;;;;;;;;;;;;;;10.66;76.61;98957.47;7393218;19;19921;-81
2022/11/02 01:06:49;;;;;;;;;;;;;;;10.61;76.74;98953.59;7392946;19;19992;-78
2022/11/02 01:09:16;;;;;;;;;;;;;;;10.68;76.69;98957.34;7395315;19;19947;-81
2022/11/02 01:11:43;;;;;;;;;;;;;;;10.61;76.49;98948.31;7396425;19;19922;-80
2022/11/02 01:14:09;;;;;;;;;;;;;;;10.53;76.47;98947.22;7394455;19;20321;-81
2022/11/02 01:16:37;;;;;;;;;;;;;;;10.68;75.84;98946.75;7393892;19;19918;-80
2022/11/02 01:19:04;;;;;;;;;;;;;;;10.68;75.80;98946.75;7389204;19;19923;-80
2022/11/02 01:21:30;;;;;;;;;;;;;;;10.72;76.40;98948.16;7389297;19;19943;-80
2022/11/02 01:23:57;;;;;;;;;;;;;;;10.76;76.27;98944.22;7391618;19;20287;-80
2022/11/02 01:26:23;;;;;;;;;;;;;;;10.82;76.25;98943.69;7389453;19;19943;-80
2022/11/02 01:28:51;;;;;;;;;;;;;;;10.92;76.42;98938.34;7391175;19;19951;-80
2022/11/02 01:31:18;;;;;;;;;;;;;;;10.96;76.19;98945.84;7391845;19;19946;-81
2022/11/02 01:33:45;;;;;;;;;;;;;;;10.88;76.02;98943.09;7393097;19;20275;-80
2022/11/02 01:36:12;;;;;;;;;;;;;;;10.88;76.47;98943.09;7388803;19;19922;-80
2022/11/02 01:38:39;;;;;;;;;;;;;;;10.87;76.64;98941.41;7385709;19;19922;-81
2022/11/02 01:41:06;;;;;;;;;;;;;;;10.97;76.44;98933.44;7390296;19;19919;-80
2022/11/02 01:43:33;;;;;;;;;;;;;;;11.03;76.36;98935.50;7393199;19;19962;-80
2022/11/02 01:46:03;;;;;;;;;;;;;;;11.10;75.64;98935.78;7391245;19;19930;-80
2022/11/02 01:48:31;;;;;;;;;;;;;;;11.11;75.50;98937.44;7389039;19;19949;-80
2022/11/02 01:50:59;;;;;;;;;;;;;;;11.21;75.00;98939.06;7391625;19;19923;-81
2022/11/02 01:53:27;;;;;;;;;;;;;;;11.17;75.17;98937.69;7389812;19;20691;-80
2022/11/02 01:55:53;;;;;;;;;;;;;;;11.16;75.04;98932.53;7385338;19;19918;-80
2022/11/02 01:58:20;;;;;;;;;;;;;;;11.14;74.34;98937.16;7388126;19;19918;-80
2022/11/02 02:00:47;;;;;;;;;;;;;;;11.01;74.65;98931.38;7385995;19;19982;-81
2022/11/02 02:03:18;;;;;;;;;;;;;;;10.97;74.86;98920.22;7389938;19;19911;-80
2022/11/02 02:05:47;;;;;;;;;;;;;;;10.91;75.17;98921.63;7392729;19;20001;-81
2022/11/02 02:08:18;;;;;;;;;;;;;;;10.88;75.73;98915.81;7391373;19;19931;-81
2022/11/02 02:10:45;;;;;;;;;;;;;;;10.91;75.57;98920.81;7391003;19;19918;-81
2022/11/02 02:13:11;;;;;;;;;;;;;;;10.77;76.09;98909.69;7391067;19;19952;-81
2022/11/02 02:15:46;;;;;;;;;;;;;;;10.74;76.39;98904.69;7392696;19;19918;-82
2022/11/02 02:18:25;;;;;;;;;;;;;;;10.78;76.27;98889.34;7392034;19;20330;-80
2022/11/02 02:20:57;;;;;;;;;;;;;;;10.79;76.37;98896.31;7392585;19;19918;-82
2022/11/02 02:23:38;;;;;;;;;;;;;;;10.76;76.47;98892.13;7393388;19;19973;-79
2022/11/02 02:26:04;;;;;;;;;;;;;;;10.72;76.94;98900.53;7392696;19;19943;-79
2022/11/02 02:28:41;;;;;;;;;;;;;;;10.80;76.59;98891.88;7386967;19;19922;-81
2022/11/02 02:31:14;;;;;;;;;;;;;;;10.74;77.00;98890.59;7391522;19;19936;-80
2022/11/02 02:33:41;;;;;;;;;;;;;;;10.76;77.31;98891.31;7393823;19;19933;-81
2022/11/02 02:36:26;;;;;;;;;;;;;;;10.89;77.00;98891.00;7395284;19;19915;-81
2022/11/02 02:38:59;;;;;;;;;;;;;;;10.89;77.05;98891.81;7393368;19;19918;-79
2022/11/02 02:41:33;;;;;;;;;;;;;;;10.89;76.73;98889.16;7390914;19;19951;-83
2022/11/02 02:44:00;;;;;;;;;;;;;;;10.90;76.83;98888.22;7389198;19;19947;-79
2022/11/02 02:46:36;;;;;;;;;;;;;;;10.90;76.71;98888.22;7388650;19;19919;-80
2022/11/02 02:49:09;;;;;;;;;;;;;;;10.88;76.62;98884.88;7390682;19;19918;-80
2022/11/02 02:51:35;;;;;;;;;;;;;;;10.95;76.66;98890.41;7390528;19;20635;-81
2022/11/02 02:54:05;;;;;;;;;;;;;;;10.95;76.44;98888.63;7393034;19;20346;-81
2022/11/02 02:56:35;;;;;;;;;;;;;;;10.92;76.11;98890.69;7393760;19;19926;-80
2022/11/02 02:59:04;;;;;;;;;;;;;;;10.94;76.27;98884.28;7390740;19;20334;-81
2022/11/02 03:01:31;;;;;;;;;;;;;;;10.91;76.20;98884.56;7387216;19;20350;-80
2022/11/02 03:03:57;;;;;;;;;;;;;;;10.97;75.98;98883.16;7388166;19;19917;-80
2022/11/02 03:06:31;;;;;;;;;;;;;;;11.03;75.45;98876.44;7384134;19;19932;-81
2022/11/02 03:09:06;;;;;;;;;;;;;;;10.98;75.55;98879.53;7383309;19;19915;-80
2022/11/02 03:11:35;;;;;;;;;;;;;;;10.88;75.98;98874.28;7395108;19;19922;-80
2022/11/02 03:14:05;;;;;;;;;;;;;;;10.98;75.70;98879.53;7393098;19;19958;-80
2022/11/02 03:16:51;;;;;;;;;;;;;;;10.99;75.53;98870.59;7393027;19;19926;-81
2022/11/02 03:19:38;;;;;;;;;;;;;;;11.03;75.03;98876.44;7391480;19;19922;-81
2022/11/02 03:22:24;;;;;;;;;;;;;;;10.90;75.18;98876.75;7392835;19;19918;-80
2022/11/02 03:24:54;;;;;;;;;;;;;;;10.83;76.17;98875.69;7394140;19;20338;-80
2022/11/02 03:27:24;;;;;;;;;;;;;;;10.88;76.48;98887.50;7396063;19;19922;-80
2022/11/02 03:30:13;;;;;;;;;;;;;;;10.89;76.87;98881.22;7390787;19;20571;-80
2022/11/02 03:33:01;;;;;;;;;;;;;;;11.01;76.60;98883.72;7395231;19;20258;-80
2022/11/02 03:35:32;;;;;;;;;;;;;;;11.13;76.33;98901.88;7397100;19;20408;-80
2022/11/02 03:38:03;;;;;;;;;;;;;;;11.13;76.20;98906.34;7399139;19;19923;-80
2022/11/02 03:40:31;;;;;;;;;;;;;;;11.09;76.03;98900.53;7398307;19;19923;-80
2022/11/02 03:42:57;;;;;;;;;;;;;;;11.19;75.95;98905.78;7395556;19;19927;-80
2022/11/02 03:45:25;;;;;;;;;;;;;;;11.10;75.96;98899.53;7393319;19;19925;-80
2022/11/02 03:47:57;;;;;;;;;;;;;;;11.11;76.02;98895.94;7394438;19;19922;-80
2022/11/02 03:50:24;;;;;;;;;;;;;;;11.11;75.82;98898.56;7389167;19;20278;-80
2022/11/02 03:52:53;;;;;;;;;;;;;;;11.18;75.59;98904.94;7393683;19;19923;-79
2022/11/02 03:55:23;;;;;;;;;;;;;;;11.17;75.75;98900.63;7391586;19;19918;-80
2022/11/02 03:57:50;;;;;;;;;;;;;;;11.15;76.00;98901.75;7392526;19;19922;-80
2022/11/02 04:00:23;;;;;;;;;;;;;;;11.21;75.91;98893.22;7390072;19;20342;-82
2022/11/02 04:02:59;;;;;;;;;;;;;;;11.13;76.06;98901.06;7392068;19;19915;-80
2022/11/02 04:05:29;;;;;;;;;;;;;;;11.23;75.33;98899.19;7391180;19;19983;-80
2022/11/02 04:16:14;;;;;;;;;;;;;;;11.24;74.32;98900.03;7395366;19;19925;-80
2022/11/02 04:21:29;;;;;;;;;;;;;;;11.17;74.45;98910.41;7396101;19;19922;-81
2022/11/02 04:27:02;;;;;;;;;;;;;;;11.27;73.85;98911.19;7394267;19;20381;-80
2022/11/02 04:29:29;;;;;;;;;;;;;;;11.28;73.84;98918.13;7392020;19;19911;-81
2022/11/02 04:31:57;;;;;;;;;;;;;;;11.18;73.92;98914.69;7396290;19;19939;-81
2022/11/02 04:34:23;;;;;;;;;;;;;;;11.19;73.83;98914.56;7398323;19;19922;-82
2022/11/02 04:36:50;;;;;;;;;;;;;;;11.10;74.48;98919.91;7398370;19;20337;-81
2022/11/02 04:39:17;;;;;;;;;;;;;;;11.11;74.73;98910.97;7394638;19;19918;-80
2022/11/02 04:41:45;;;;;;;;;;;;;;;11.06;75.05;98913.22;7395202;19;20262;-82
2022/11/02 04:44:38;;;;;;;;;;;;;;;10.90;75.12;98917.31;7395968;19;19930;-81
2022/11/02 04:47:12;;;;;;;;;;;;;;;10.94;75.13;98910.75;7398093;19;19925;-80
2022/11/02 04:49:40;;;;;;;;;;;;;;;10.83;75.26;98916.22;7394956;19;20247;-80
2022/11/02 04:52:11;;;;;;;;;;;;;;;10.69;75.35;98917.53;7396216;19;19914;-81
2022/11/02 04:54:43;;;;;;;;;;;;;;;10.63;75.59;98915.44;7395244;19;20350;-82
2022/11/02 04:57:10;;;;;;;;;;;;;;;10.54;75.84;98921.59;7392318;19;19918;-81
2022/11/02 04:59:37;;;;;;;;;;;;;;;10.47;75.97;98916.03;7390969;19;19922;-81
2022/11/02 05:02:06;;;;;;;;;;;;;;;10.49;76.17;98927.31;7397840;19;19914;-80
2022/11/02 05:04:35;;;;;;;;;;;;;;;10.40;76.04;98929.94;7395758;19;19982;-80
2022/11/02 05:07:05;;;;;;;;;;;;;;;10.33;76.00;98930.53;7396568;19;19943;-83
2022/11/02 05:09:33;;;;;;;;;;;;;;;10.28;76.11;98931.91;7394438;19;19919;-81
2022/11/02 05:12:03;;;;;;;;;;;;;;;10.30;76.14;98929.97;7395821;19;19919;-81
2022/11/02 05:14:33;;;;;;;;;;;;;;;10.24;76.39;98928.69;7392949;19;19930;-81
2022/11/02 05:17:01;;;;;;;;;;;;;;;10.24;76.40;98930.47;7394746;19;19982;-80
2022/11/02 05:19:27;;;;;;;;;;;;;;;10.24;76.23;98935.78;7395100;19;20347;-81
2022/11/02 05:21:54;;;;;;;;;;;;;;;10.25;76.19;98929.53;7393901;19;19915;-80
2022/11/02 05:24:23;;;;;;;;;;;;;;;10.23;76.15;98934.94;7396731;19;19921;-78
2022/11/02 05:26:50;;;;;;;;;;;;;;;10.25;76.19;98929.53;7394440;19;19940;-79
2022/11/02 05:29:21;;;;;;;;;;;;;;;10.20;76.19;98939.69;7390840;19;19930;-80
2022/11/02 05:31:48;;;;;;;;;;;;;;;10.29;76.39;98937.09;7391968;19;19955;-79
2022/11/02 05:34:15;;;;;;;;;;;;;;;10.25;76.52;98938.28;7392026;19;19927;-79
2022/11/02 05:36:41;;;;;;;;;;;;;;;10.30;76.16;98946.69;7392595;19;20291;-80
2022/11/02 05:39:08;;;;;;;;;;;;;;;10.27;76.40;98948.75;7390379;19;20303;-78
2022/11/02 05:41:34;;;;;;;;;;;;;;;10.30;76.53;98959.06;7391837;19;19950;-80
2022/11/02 05:44:01;;;;;;;;;;;;;;;10.30;76.81;98954.59;7391243;19;19923;-78
2022/11/02 05:46:32;;;;;;;;;;;;;;;10.36;76.83;98953.22;7387523;19;19915;-79
2022/11/02 05:49:03;;;;;;;;;;;;;;;10.23;76.85;98949.97;7386556;19;19982;-81
2022/11/02 05:51:31;;;;;;;;;;;;;;;10.28;76.91;98945.16;7389957;19;19947;-78
2022/11/02 05:53:57;;;;;;;;;;;;;;;10.33;77.00;98945.56;7389649;19;19919;-80
2022/11/02 05:56:24;;;;;;;;;;;;;;;10.30;77.01;98944.03;7393145;19;20323;-79
2022/11/02 05:58:55;;;;;;;;;;;;;;;10.40;77.08;98941.38;7389073;19;19922;-80
2022/11/02 06:01:22;;;;;;;;;;;;;;;10.49;76.89;98945.81;7384845;19;19926;-80
2022/11/02 06:03:48;;;;;;;;;;;;;;;10.52;77.03;98958.75;7388799;19;20624;-80
2022/11/02 06:06:19;;;;;;;;;;;;;;;10.70;76.83;98956.22;7389977;19;20315;-77
2022/11/02 06:08:47;;;;;;;;;;;;;;;10.72;76.76;98959.56;7385213;19;19922;-79
2022/11/02 06:11:16;;;;;;;;;;;;;;;10.71;76.63;98960.53;7385216;19;19948;-78
2022/11/02 06:13:43;;;;;;;;;;;;;;;10.70;76.96;98961.53;7387619;19;19919;-79
2022/11/02 06:16:10;;;;;;;;;;;;;;;10.78;77.02;98968.75;7388159;19;19927;-78
2022/11/02 06:18:37;;;;;;;;;;;;;;;10.71;77.17;98973.75;7386453;19;19926;-78
2022/11/02 06:21:04;;;;;;;;;;;;;;;10.75;76.95;98969.88;7382386;19;20272;-79
2022/11/02 06:23:31;;;;;;;;;;;;;;;10.79;76.84;98973.06;7384302;19;19914;-80
2022/11/02 06:25:58;;;;;;;;;;;;;;;10.80;76.78;98985.34;7388910;19;19918;-80
2022/11/02 06:28:25;;;;;;;;;;;;;;;10.87;76.71;98986.41;7389603;19;19919;-80
2022/11/02 06:30:52;;;;;;;;;;;;;;;10.84;76.77;98988.53;7385890;19;19922;-80
2022/11/02 06:33:19;;;;;;;;;;;;;;;10.89;76.68;98992.41;7386413;19;19911;-78
2022/11/02 06:35:46;;;;;;;;;;;;;;;10.99;76.71;98998.53;7385551;19;20292;-79
2022/11/02 06:38:13;;;;;;;;;;;;;;;11.02;76.63;98996.56;7387141;19;19919;-79
2022/11/02 06:40:43;;;;;;;;;;;;;;;11.07;76.62;99003.09;7384535;19;19918;-80
2022/11/02 06:43:11;;;;;;;;;;;;;;;11.16;76.63;99001.41;7386024;19;19915;-80
2022/11/02 06:45:43;;;;;;;;;;;;;;;11.23;76.96;99009.63;7392529;19;19955;-80
2022/11/02 06:48:10;;;;;;;;;;;;;;;11.30;76.88;99014.19;7399180;19;19959;-81
2022/11/02 06:50:37;;;;;;;;;;;;;;;11.39;77.08;99023.91;7395626;19;19922;-80
2022/11/02 06:53:03;;;;;;;;;;;;;;;11.50;77.10;99022.06;7388835;19;19930;-81
2022/11/02 06:55:30;;;;;;;;;;;;;;;11.71;76.71;99032.44;7389861;19;19923;-81
2022/11/02 06:57:57;;;;;;;;;;;;;;;11.79;75.78;99038.66;7394846;19;19922;-81
2022/11/02 07:00:24;;;;;;;;;;;;;;;11.83;75.55;99045.34;7393269;19;19915;-80
2022/11/02 07:03:04;;;;;;;;;;;;;;;11.96;75.05;99046.84;7394627;19;19926;-78
2022/11/02 07:05:32;;;;;;;;;;;;;;;12.04;73.91;99057.56;7389601;19;19925;-79
2022/11/02 07:07:58;;;;;;;;;;;;;;;12.16;73.30;99069.63;7389771;19;19922;-80
2022/11/02 07:10:25;;;;;;;;;;;;;;;12.14;72.91;99074.25;7388643;19;19926;-80
2022/11/02 07:12:53;;;;;;;;;;;;;;;12.01;73.97;99082.56;7392695;19;19922;-81
2022/11/02 07:15:20;;;;;;;;;;;;;;;12.00;73.06;99078.22;7395606;19;19911;-80
2022/11/02 07:17:46;;;;;;;;;;;;;;;11.92;73.24;99086.06;7397904;19;19914;-79
2022/11/02 07:20:13;;;;;;;;;;;;;;;11.78;73.81;99087.38;7395330;19;20311;-81
2022/11/02 07:22:40;;;;;;;;;;;;;;;11.95;73.40;99092.91;7398075;19;19943;-82
2022/11/02 07:25:06;;;;;;;;;;;;;;;11.89;73.97;99090.84;7398225;19;19914;-80
2022/11/02 07:27:39;;;;;;;;;;;;;;;11.86;74.13;99095.44;7395011;19;19958;-82
2022/11/02 07:30:06;;;;;;;;;;;;;;;11.89;74.22;99096.97;7395775;19;19937;-82
2022/11/02 07:32:42;;;;;;;;;;;;;;;11.90;74.77;99097.81;7399037;19;19926;-81
2022/11/02 07:35:10;;;;;;;;;;;;;;;11.98;75.26;99104.06;7397545;19;19911;-80
2022/11/02 07:37:36;;;;;;;;;;;;;;;12.07;75.29;99102.34;7396032;19;19922;-80
2022/11/02 07:40:04;;;;;;;;;;;;;;;12.11;75.75;99103.69;7392641;19;19936;-79
2022/11/02 07:42:30;;;;;;;;;;;;;;;12.18;75.70;99103.97;7391194;19;19918;-83
2022/11/02 07:44:57;;;;;;;;;;;;;;;12.22;75.46;99106.19;7392537;19;21655;-80
2022/11/02 07:47:24;;;;;;;;;;;;;;;12.37;74.84;99097.69;7394787;19;19951;-81
2022/11/02 07:49:50;;;;;;;;;;;;;;;12.38;74.35;99102.03;7394911;19;19922;-81
2022/11/02 07:52:17;;;;;;;;;;;;;;;12.37;74.73;99103.84;7397583;19;19919;-81
2022/11/02 07:54:43;;;;;;;;;;;;;;;12.46;74.77;99108.25;7393391;19;19923;-81
2022/11/02 07:57:10;;;;;;;;;;;;;;;12.55;74.74;99097.72;7394257;19;20001;-78
2022/11/02 07:59:36;;;;;;;;;;;;;;;12.69;75.21;99100.72;7391060;19;19922;-81
2022/11/02 08:02:03;;;;;;;;;;;;;;;12.94;74.96;99101.75;7395297;19;19939;-80
2022/11/02 08:04:30;;;;;;;;;;;;;;;13.12;73.49;99101.72;7393346;19;19953;-78
2022/11/02 08:06:57;;;;;;;;;;;;;;;13.20;73.37;99102.78;7393012;19;19951;-84
2022/11/02 08:09:24;;;;;;;;;;;;;;;13.37;72.87;99102.75;7389309;19;19925;-79
2022/11/02 08:11:50;;;;;;;;;;;;;;;13.53;72.23;99103.88;7394394;19;19936;-79
2022/11/02 08:14:17;;;;;;;;;;;;;;;13.53;71.61;99101.19;7391823;19;19922;-81
2022/11/02 08:16:44;;;;;;;;;;;;;;;13.60;71.69;99103.09;7394275;19;19914;-79
2022/11/02 08:19:10;;;;;;;;;;;;;;;13.77;71.57;99108.47;7389668;19;19906;-82
2022/11/02 08:21:37;;;;;;;;;;;;;;;13.69;70.55;99108.44;7393146;19;20154;-79
2022/11/02 08:24:03;;;;;;;;;;;;;;;13.81;70.37;99109.84;7395173;19;19928;-78
2022/11/02 08:26:30;;;;;;;;;;;;;;;13.99;69.54;99110.59;7395987;19;19930;-79
2022/11/02 08:28:57;;;;;;;;;;;;;;;13.98;69.12;99114.28;7392510;19;19937;-78
2022/11/02 08:31:23;;;;;;;;;;;;;;;14.04;69.09;99113.63;7390061;19;20354;-79
2022/11/02 08:33:52;;;;;;;;;;;;;;;14.18;67.85;99114.84;7394219;19;19935;-81
2022/11/02 08:36:28;;;;;;;;;;;;;;;14.13;67.73;99116.31;7391325;19;19926;-79
2022/11/02 08:39:04;;;;;;;;;;;;;;;14.28;69.09;99112.88;7387509;19;20728;-79
2022/11/02 08:41:31;;;;;;;;;;;;;;;14.41;69.32;99108.94;7392863;19;19956;-79
2022/11/02 08:43:58;;;;;;;;;;;;;;;14.52;68.19;99108.63;7393303;19;19922;-78
2022/11/02 08:46:24;;;;;;;;;;;;;;;14.59;67.03;99117.66;7399204;19;20511;-79
2022/11/02 08:48:51;;;;;;;;;;;;;;;14.60;67.86;99116.66;7391142;19;19919;-79
2022/11/02 08:51:22;;;;;;;;;;;;;;;14.64;67.62;99115.34;7388409;19;19925;-79
2022/11/02 08:53:49;;;;;;;;;;;;;;;14.55;67.25;99115.47;7389628;19;20342;-79
2022/11/02 08:56:17;;;;;;;;;;;;;;;14.71;67.38;99118.16;7388674;19;20263;-78
2022/11/02 08:58:43;;;;;;;;;;;;;;;14.76;66.98;99115.84;7388953;19;19930;-78
2022/11/02 09:01:10;;;;;;;;;;;;;;;14.82;67.02;99120.50;7385914;19;19914;-78
2022/11/02 09:03:37;;;;;;;;;;;;;;;14.81;66.56;99116.19;7389799;19;19914;-78
2022/11/02 09:06:04;;;;;;;;;;;;;;;14.89;65.95;99124.19;7388968;19;19918;-79
2022/11/02 09:08:31;;;;;;;;;;;;;;;14.87;67.42;99115.53;7388807;19;19911;-78
2022/11/02 09:10:59;;;;;;;;;;;;;;;14.95;67.02;99116.53;7390873;19;19911;-79
2022/11/02 09:13:27;;;;;;;;;;;;;;;14.98;67.62;99121.53;7387050;19;20646;-78
2022/11/02 09:15:54;;;;;;;;;;;;;;;15.02;67.24;99123.69;7385891;19;19921;-78
2022/11/02 09:18:21;;;;;;;;;;;;;;;15.00;67.17;99116.88;7387005;19;19935;-79
2022/11/02 09:20:48;;;;;;;;;;;;;;;15.14;67.47;99118.88;7387337;19;20582;-78
2022/11/02 09:23:15;;;;;;;;;;;;;;;15.16;67.14;99124.88;7385051;19;19922;-78
2022/11/02 09:25:42;;;;;;;;;;;;;;;15.29;66.95;99114.53;7383803;19;19911;-77
2022/11/02 09:28:09;;;;;;;;;;;;;;;15.25;66.80;99118.53;7388424;19;19931;-78
2022/11/02 09:30:36;;;;;;;;;;;;;;;15.26;67.04;99114.88;7387068;19;20262;-78
2022/11/02 09:33:04;;;;;;;;;;;;;;;15.29;67.07;99113.69;7391085;19;19943;-78
2022/11/02 09:35:32;;;;;;;;;;;;;;;15.34;66.80;99122.84;7387297;19;19906;-78
2022/11/02 09:37:58;;;;;;;;;;;;;;;15.46;66.39;99119.88;7388543;19;19926;-77
2022/11/02 09:40:29;;;;;;;;;;;;;;;15.51;66.68;99120.19;7381996;19;20311;-78
2022/11/02 09:43:02;;;;;;;;;;;;;;;15.65;66.60;99121.34;7387684;19;19915;-77
2022/11/02 09:45:39;;;;;;;;;;;;;;;15.66;66.42;99131.00;7386141;19;19922;-78
2022/11/02 09:48:09;;;;;;;;;;;;;;;15.49;66.34;99135.53;7389638;19;20661;-78
2022/11/02 09:50:43;;;;;;;;;;;;;;;15.52;64.80;99141.34;7388750;19;19918;-78
2022/11/02 09:53:11;;;;;;;;;;;;;;;15.68;64.37;99139.66;7390292;19;19939;-78
2022/11/02 09:55:40;;;;;;;;;;;;;;;15.74;64.05;99142.50;7384043;19;19922;-78
2022/11/02 09:58:10;;;;;;;;;;;;;;;15.85;65.18;99151.16;7383402;19;19943;-77
2022/11/02 10:00:38;;;;;;;;;;;;;;;15.88;65.32;99149.00;7385914;19;19922;-78
2022/11/02 10:03:25;;;;;;;;;;;;;;;15.98;64.41;99151.44;7386662;19;19918;-78
2022/11/02 10:05:55;;;;;;;;;;;;;;;15.93;64.14;99156.47;7386459;19;19943;-78
2022/11/02 10:08:23;;;;;;;;;;;;;;;15.87;63.97;99149.16;7389965;19;19925;-78
2022/11/02 10:11:09;;;;;;;;;;;;;;;15.46;63.47;99147.38;7386285;19;19918;-78
2022/11/02 10:14:05;;;;;;;;;;;;;;;15.71;63.77;99142.84;7383278;19;19923;-78
2022/11/02 10:16:36;;;;;;;;;;;;;;;15.53;64.12;99136.84;7382409;19;20282;-78
2022/11/02 10:19:03;;;;;;;;;;;;;;;15.80;63.78;99139.16;7380725;19;19922;-78
2022/11/02 10:21:33;;;;;;;;;;;;;;;15.69;62.62;99138.69;7390735;19;19947;-79
2022/11/02 10:24:17;;;;;;;;;;;;;;;15.45;63.65;99136.84;7395057;19;20376;-79
2022/11/02 10:26:43;;;;;;;;;;;;;;;15.30;64.64;99134.88;7394493;19;20379;-79
2022/11/02 10:29:12;;;;;;;;;;;;;;;15.42;63.98;99134.53;7392797;19;20024;-79
2022/11/02 10:31:39;;;;;;;;;;;;;;;15.03;62.85;99133.34;7395697;19;19918;-77
2022/11/02 10:34:12;;;;;;;;;;;;;;;15.14;63.02;99130.38;7397328;19;19922;-78
2022/11/02 10:36:38;;;;;;;;;;;;;;;15.30;63.89;99132.22;7395942;19;19935;-78
2022/11/02 10:39:08;;;;;;;;;;;;;;;15.36;63.67;99128.88;7394950;19;19918;-79
2022/11/02 10:41:51;;;;;;;;;;;;;;;15.44;62.70;99127.19;7390487;19;19923;-78
2022/11/02 10:44:24;;;;;;;;;;;;;;;15.17;62.09;99131.06;7398812;19;19936;-78
2022/11/02 10:47:00;;;;;;;;;;;;;;;15.03;62.04;99130.69;7397108;19;19918;-79
2022/11/02 10:49:45;;;;;;;;;;;;;;;15.25;62.11;99134.53;7388639;19;20289;-79
2022/11/02 10:52:13;;;;;;;;;;;;;;;15.42;62.04;99140.69;7393723;19;19930;-78
2022/11/02 10:54:39;;;;;;;;;;;;;;;15.34;62.44;99141.53;7393878;19;19963;-78
2022/11/02 10:57:08;;;;;;;;;;;;;;;15.17;61.96;99139.88;7390995;19;19907;-78
2022/11/02 10:59:34;;;;;;;;;;;;;;;15.39;62.65;99142.88;7389153;19;19962;-78
2022/11/02 11:02:01;;;;;;;;;;;;;;;15.45;61.57;99131.53;7396735;19;19926;-79
2022/11/02 11:04:29;;;;;;;;;;;;;;;15.50;63.14;99134.50;7392608;19;19918;-78
2022/11/02 11:06:56;;;;;;;;;;;;;;;15.61;62.06;99136.81;7390787;19;20374;-78
2022/11/02 11:09:37;;;;;;;;;;;;;;;15.45;61.08;99132.34;7387102;19;19918;-77
2022/11/02 11:12:19;;;;;;;;;;;;;;;15.55;62.32;99132.19;7390193;19;19943;-77
2022/11/02 11:14:46;;;;;;;;;;;;;;;15.63;63.86;99136.66;7393283;19;19926;-78
2022/11/02 11:17:36;;;;;;;;;;;;;;;15.40;62.67;99137.34;7402427;19;19922;-78
2022/11/02 11:20:25;;;;;;;;;;;;;;;15.43;62.74;99129.03;7390086;19;19998;-80
2022/11/02 11:23:11;;;;;;;;;;;;;;;15.28;62.11;99122.72;7393519;19;19914;-80
2022/11/02 11:25:38;;;;;;;;;;;;;;;15.30;62.89;99116.22;7396551;19;19922;-78
2022/11/02 11:28:19;;;;;;;;;;;;;;;15.19;62.75;99129.84;7399089;19;19919;-80
2022/11/02 11:30:47;;;;;;;;;;;;;;;15.36;62.39;99133.38;7397825;19;19919;-80
2022/11/02 11:33:25;;;;;;;;;;;;;;;15.20;62.62;99130.72;7396268;19;19919;-81
2022/11/02 11:35:52;;;;;;;;;;;;;;;15.19;62.84;99129.84;7396447;19;20387;-78
2022/11/02 11:38:20;;;;;;;;;;;;;;;15.10;62.75;99123.69;7393650;19;19918;-80
2022/11/02 11:40:47;;;;;;;;;;;;;;;15.23;64.09;99123.22;7394751;19;19940;-80
2022/11/02 11:43:15;;;;;;;;;;;;;;;15.12;63.13;99118.22;7396051;19;19961;-78
2022/11/02 11:46:01;;;;;;;;;;;;;;;15.25;63.27;99115.88;7399380;19;19939;-77
2022/11/02 11:48:37;;;;;;;;;;;;;;;15.01;62.74;99103.41;7395683;19;20251;-76
2022/11/02 11:51:04;;;;;;;;;;;;;;;15.17;62.29;99104.41;7394040;19;20277;-80
2022/11/02 11:53:30;;;;;;;;;;;;;;;15.28;62.62;99102.22;7396468;19;19914;-79
2022/11/02 11:56:00;;;;;;;;;;;;;;;15.28;61.57;99102.22;7396262;19;19930;-79
2022/11/02 11:58:27;;;;;;;;;;;;;;;15.20;60.97;99096.88;7392515;19;20718;-75
2022/11/02 12:01:09;;;;;;;;;;;;;;;14.98;61.27;99095.75;7393440;19;19915;-79
2022/11/02 12:03:52;;;;;;;;;;;;;;;15.31;62.63;99087.72;7395694;19;19927;-80
2022/11/02 12:06:21;;;;;;;;;;;;;;;15.06;61.54;99084.22;7398140;19;19918;-76
2022/11/02 12:08:48;;;;;;;;;;;;;;;15.09;62.35;99082.06;7391882;19;19943;-77
2022/11/02 12:11:20;;;;;;;;;;;;;;;15.35;62.34;99089.06;7393612;19;19907;-80
2022/11/02 12:13:49;;;;;;;;;;;;;;;15.17;61.81;99075.91;7393786;19;19939;-80
2022/11/02 12:16:43;;;;;;;;;;;;;;;15.18;62.06;99087.41;7398210;19;19932;-80
2022/11/02 12:19:25;;;;;;;;;;;;;;;15.09;61.16;99084.75;7398604;19;19935;-78
2022/11/02 12:22:20;;;;;;;;;;;;;;;15.14;62.25;99084.25;7395656;19;19919;-80
2022/11/02 12:25:16;;;;;;;;;;;;;;;15.08;62.36;99082.22;7395129;19;19950;-78
2022/11/02 12:27:47;;;;;;;;;;;;;;;15.16;62.19;99082.22;7392821;19;19959;-79
2022/11/02 12:30:22;;;;;;;;;;;;;;;15.08;61.41;99084.91;7391560;19;19919;-79
2022/11/02 12:32:53;;;;;;;;;;;;;;;15.25;61.44;99081.22;7395632;19;19943;-80
2022/11/02 12:35:38;;;;;;;;;;;;;;;15.27;61.45;99081.91;7390338;19;19918;-76
2022/11/02 12:38:04;;;;;;;;;;;;;;;15.13;62.51;99072.72;7395205;19;19955;-79
2022/11/02 12:40:49;;;;;;;;;;;;;;;15.22;62.19;99072.72;7392340;19;19925;-80
2022/11/02 12:43:19;;;;;;;;;;;;;;;15.35;62.12;99065.06;7390283;19;19922;-80
2022/11/02 12:45:49;;;;;;;;;;;;;;;15.42;61.03;99068.69;7392860;19;19922;-80
2022/11/02 12:48:39;;;;;;;;;;;;;;;15.45;60.08;99059.53;7394695;19;19923;-79
2022/11/02 12:51:17;;;;;;;;;;;;;;;15.73;60.56;99055.47;7366039;19;19940;-77
2022/11/02 12:53:55;;;;;;;;;;;;;;;15.70;62.47;99050.50;7371018;19;20350;-79
2022/11/02 12:56:43;;;;;;;;;;;;;;;15.64;60.85;99042.28;7381020;19;19935;-76
2022/11/02 12:59:18;;;;;;;;;;;;;;;15.69;58.64;99046.16;7378481;19;19927;-81
2022/11/02 13:01:51;;;;;;;;;;;;;;;15.86;58.97;99054.09;7378036;19;19918;-79
2022/11/02 13:04:23;;;;;;;;;;;;;;;15.95;58.94;99053.06;7379802;19;19922;-78
2022/11/02 13:07:01;;;;;;;;;;;;;;;15.99;59.32;99051.72;7384794;19;19919;-79
2022/11/02 13:09:36;;;;;;;;;;;;;;;15.88;57.08;99033.44;7378513;19;20693;-77
2022/11/02 13:12:08;;;;;;;;;;;;;;;15.87;56.36;99045.09;7373472;19;21121;-79
2022/11/02 13:14:39;;;;;;;;;;;;;;;15.86;57.78;99046.94;7362565;19;19926;-79
2022/11/02 13:17:25;;;;;;;;;;;;;;;15.85;57.54;99047.09;7365578;19;20318;-77